sensor_id;sensor_type;location;lat;lon;timestamp;pressure;altitude;pressure_sealevel;temperature;humidity
55424;BME280;41294;42.666;23.350;2022-12-07T00:01:12;95040.31;;;6.44;100.00
55424;BME280;41294;42.666;23.350;2022-12-07T00:03:39;95041.09;;;6.25;100.00
55424;BME280;41294;42.666;23.350;2022-12-07T00:06:06;95048.06;;;6.32;100.00
55424;BME280;41294;42.666;23.350;2022-12-07T00:08:33;95041.69;;;6.49;100.00
55424;BME280;41294;42.666;23.350;2022-12-07T00:11:13;95043.00;;;6.25;100.00
55424;BME280;41294;42.666;23.350;2022-12-07T00:13:39;95041.88;;;6.42;100.00
55424;BME280;41294;42.666;23.350;2022-12-07T00:16:11;95042.75;;;6.35;100.00
55424;BME280;41294;42.666;23.350;2022-12-07T00:18:37;95030.66;;;6.41;100.00
55424;BME280;41294;42.666;23.350;2022-12-07T00:21:09;95042.75;;;6.35;100.00
55424;BME280;41294;42.666;23.350;2022-12-07T00:23:35;95032.22;;;6.39;100.00
55424;BME280;41294;42.666;23.350;2022-12-07T00:26:34;95031.66;;;6.31;100.00
55424;BME280;41294;42.666;23.350;2022-12-07T00:29:07;95025.94;;;6.52;100.00
55424;BME280;41294;42.666;23.350;2022-12-07T00:31:35;95033.94;;;6.61;100.00
55424;BME280;41294;42.666;23.350;2022-12-07T00:34:11;95029.78;;;6.79;100.00
55424;BME280;41294;42.666;23.350;2022-12-07T00:36:39;95030.25;;;6.58;100.00
55424;BME280;41294;42.666;23.350;2022-12-07T00:39:11;95040.38;;;6.72;100.00
55424;BME280;41294;42.666;23.350;2022-12-07T00:41:36;95035.72;;;6.80;100.00
55424;BME280;41294;42.666;23.350;2022-12-07T00:44:04;95039.66;;;6.88;100.00
55424;BME280;41294;42.666;23.350;2022-12-07T00:46:31;95029.81;;;7.08;100.00
55424;BME280;41294;42.666;23.350;2022-12-07T00:48:57;95021.34;;;6.88;100.00
55424;BME280;41294;42.666;23.350;2022-12-07T00:51:23;95031.47;;;6.86;100.00
55424;BME280;41294;42.666;23.350;2022-12-07T00:53:50;95019.38;;;6.92;100.00
55424;BME280;41294;42.666;23.350;2022-12-07T00:56:21;95023.19;;;7.03;100.00
55424;BME280;41294;42.666;23.350;2022-12-07T00:58:54;95023.38;;;6.96;100.00
55424;BME280;41294;42.666;23.350;2022-12-07T01:01:21;95022.88;;;7.01;100.00
55424;BME280;41294;42.666;23.350;2022-12-07T01:03:47;95024.28;;;6.90;100.00
55424;BME280;41294;42.666;23.350;2022-12-07T01:06:17;95017.63;;;7.01;100.00
55424;BME280;41294;42.666;23.350;2022-12-07T01:08:43;95020.34;;;6.98;100.00
55424;BME280;41294;42.666;23.350;2022-12-07T01:11:12;95014.84;;;7.08;100.00
55424;BME280;41294;42.666;23.350;2022-12-07T01:13:38;95020.44;;;6.94;100.00
55424;BME280;41294;42.666;23.350;2022-12-07T01:16:05;95021.16;;;6.95;100.00
55424;BME280;41294;42.666;23.350;2022-12-07T01:18:33;95019.44;;;7.04;100.00
55424;BME280;41294;42.666;23.350;2022-12-07T01:20:59;95018.09;;;7.12;100.00
55424;BME280;41294;42.666;23.350;2022-12-07T01:23:25;95009.59;;;7.08;100.00
55424;BME280;41294;42.666;23.350;2022-12-07T01:25:58;95005.47;;;6.95;100.00
55424;BME280;41294;42.666;23.350;2022-12-07T01:28:24;95009.97;;;6.94;100.00
55424;BME280;41294;42.666;23.350;2022-12-07T01:31:07;95008.91;;;6.76;100.00
55424;BME280;41294;42.666;23.350;2022-12-07T01:33:35;95004.25;;;6.83;100.00
55424;BME280;41294;42.666;23.350;2022-12-07T01:36:03;94999.78;;;6.84;100.00
55424;BME280;41294;42.666;23.350;2022-12-07T01:38:30;95004.25;;;6.83;100.00
55424;BME280;41294;42.666;23.350;2022-12-07T01:40:57;95005.06;;;6.80;100.00
55424;BME280;41294;42.666;23.350;2022-12-07T01:43:24;94998.44;;;6.76;100.00
55424;BME280;41294;42.666;23.350;2022-12-07T01:45:50;95006.72;;;6.74;100.00
55424;BME280;41294;42.666;23.350;2022-12-07T01:48:19;95010.00;;;6.78;100.00
55424;BME280;41294;42.666;23.350;2022-12-07T01:50:48;95010.47;;;6.73;100.00
55424;BME280;41294;42.666;23.350;2022-12-07T01:53:16;95001.91;;;6.73;100.00
55424;BME280;41294;42.666;23.350;2022-12-07T01:55:46;94997.00;;;6.75;100.00
55424;BME280;41294;42.666;23.350;2022-12-07T01:58:13;94999.63;;;6.75;100.00
55424;BME280;41294;42.666;23.350;2022-12-07T02:00:40;94991.69;;;6.78;100.00
55424;BME280;41294;42.666;23.350;2022-12-07T02:05:35;94984.13;;;6.80;100.00
55424;BME280;41294;42.666;23.350;2022-12-07T02:08:02;94979.00;;;6.77;100.00
55424;BME280;41294;42.666;23.350;2022-12-07T02:10:30;94986.16;;;6.60;100.00
55424;BME280;41294;42.666;23.350;2022-12-07T02:13:18;94985.88;;;6.71;100.00
55424;BME280;41294;42.666;23.350;2022-12-07T02:23:41;94987.25;;;6.75;100.00
55424;BME280;41294;42.666;23.350;2022-12-07T02:26:36;94981.94;;;6.79;100.00
55424;BME280;41294;42.666;23.350;2022-12-07T02:32:04;94977.47;;;6.79;100.00
55424;BME280;41294;42.666;23.350;2022-12-07T02:34:55;94969.69;;;6.76;100.00
55424;BME280;41294;42.666;23.350;2022-12-07T02:37:27;94968.09;;;6.66;100.00
55424;BME280;41294;42.666;23.350;2022-12-07T02:43:12;94974.91;;;6.76;100.00
55424;BME280;41294;42.666;23.350;2022-12-07T02:45:41;94977.84;;;6.78;100.00
55424;BME280;41294;42.666;23.350;2022-12-07T02:48:12;94978.47;;;6.69;100.00
55424;BME280;41294;42.666;23.350;2022-12-07T02:50:43;94971.34;;;6.54;100.00
55424;BME280;41294;42.666;23.350;2022-12-07T02:53:38;94969.78;;;6.56;100.00
55424;BME280;41294;42.666;23.350;2022-12-07T03:02:58;94963.09;;;6.40;100.00
55424;BME280;41294;42.666;23.350;2022-12-07T03:14:04;94952.31;;;6.38;100.00
55424;BME280;41294;42.666;23.350;2022-12-07T03:16:49;94944.31;;;6.29;100.00
55424;BME280;41294;42.666;23.350;2022-12-07T03:19:19;94941.56;;;6.36;100.00
55424;BME280;41294;42.666;23.350;2022-12-07T03:21:49;94945.06;;;6.29;100.00
55424;BME280;41294;42.666;23.350;2022-12-07T03:24:21;94950.78;;;6.24;100.00
55424;BME280;41294;42.666;23.350;2022-12-07T03:26:51;94946.78;;;6.20;100.00
55424;BME280;41294;42.666;23.350;2022-12-07T03:29:54;94944.50;;;6.22;100.00
55424;BME280;41294;42.666;23.350;2022-12-07T03:35:04;94957.97;;;6.20;100.00
55424;BME280;41294;42.666;23.350;2022-12-07T03:37:34;94960.59;;;6.20;100.00
55424;BME280;41294;42.666;23.350;2022-12-07T03:41:22;94949.63;;;6.25;100.00
55424;BME280;41294;42.666;23.350;2022-12-07T03:43:29;94956.06;;;6.05;100.00
55424;BME280;41294;42.666;23.350;2022-12-07T03:53:59;94950.84;;;5.89;100.00
55424;BME280;41294;42.666;23.350;2022-12-07T03:56:26;94954.59;;;5.88;100.00
55424;BME280;41294;42.666;23.350;2022-12-07T03:58:53;94948.56;;;5.91;100.00
55424;BME280;41294;42.666;23.350;2022-12-07T04:01:19;94940.13;;;5.83;100.00
55424;BME280;41294;42.666;23.350;2022-12-07T04:03:44;94952.88;;;5.81;100.00
55424;BME280;41294;42.666;23.350;2022-12-07T04:06:10;94946.41;;;5.86;100.00
55424;BME280;41294;42.666;23.350;2022-12-07T04:08:36;94943.88;;;5.82;100.00
55424;BME280;41294;42.666;23.350;2022-12-07T04:11:01;94941.19;;;5.86;100.00
55424;BME280;41294;42.666;23.350;2022-12-07T04:13:27;94943.09;;;5.85;100.00
55424;BME280;41294;42.666;23.350;2022-12-07T04:15:52;94951.25;;;5.87;100.00
55424;BME280;41294;42.666;23.350;2022-12-07T04:18:17;94931.75;;;5.92;100.00
55424;BME280;41294;42.666;23.350;2022-12-07T04:20:43;94932.56;;;5.89;100.00
55424;BME280;41294;42.666;23.350;2022-12-07T04:23:08;94948.50;;;5.75;100.00
55424;BME280;41294;42.666;23.350;2022-12-07T04:25:34;94942.41;;;5.81;100.00
55424;BME280;41294;42.666;23.350;2022-12-07T04:27:59;94946.03;;;5.87;100.00
55424;BME280;41294;42.666;23.350;2022-12-07T04:30:24;94942.69;;;5.68;100.00
55424;BME280;41294;42.666;23.350;2022-12-07T04:32:50;94947.03;;;5.74;100.00
55424;BME280;41294;42.666;23.350;2022-12-07T04:35:15;94947.84;;;5.71;100.00
55424;BME280;41294;42.666;23.350;2022-12-07T04:37:41;94947.44;;;5.72;100.00
55424;BME280;41294;42.666;23.350;2022-12-07T04:40:09;94948.66;;;5.68;100.00
55424;BME280;41294;42.666;23.350;2022-12-07T04:42:36;94952.38;;;5.67;100.00
55424;BME280;41294;42.666;23.350;2022-12-07T04:45:02;94949.06;;;5.67;100.00
55424;BME280;41294;42.666;23.350;2022-12-07T04:47:28;94952.09;;;5.65;100.00
55424;BME280;41294;42.666;23.350;2022-12-07T04:49:54;94955.97;;;5.57;100.00
55424;BME280;41294;42.666;23.350;2022-12-07T04:52:19;94964.00;;;5.47;100.00
55424;BME280;41294;42.666;23.350;2022-12-07T04:54:44;94950.69;;;5.41;100.00
55424;BME280;41294;42.666;23.350;2022-12-07T04:57:10;94958.63;;;5.54;100.00
55424;BME280;41294;42.666;23.350;2022-12-07T04:59:35;94953.50;;;5.50;100.00
55424;BME280;41294;42.666;23.350;2022-12-07T05:02:01;94952.34;;;5.51;100.00
55424;BME280;41294;42.666;23.350;2022-12-07T05:04:26;94962.19;;;5.63;100.00
55424;BME280;41294;42.666;23.350;2022-12-07T05:06:51;94957.31;;;5.46;100.00
55424;BME280;41294;42.666;23.350;2022-12-07T05:09:17;94962.94;;;5.44;100.00
55424;BME280;41294;42.666;23.350;2022-12-07T05:11:42;94959.66;;;5.40;100.00
55424;BME280;41294;42.666;23.350;2022-12-07T05:14:12;94957.00;;;5.44;100.00
55424;BME280;41294;42.666;23.350;2022-12-07T05:16:39;94961.13;;;5.41;100.00
55424;BME280;41294;42.666;23.350;2022-12-07T05:19:05;94958.00;;;5.50;100.00
55424;BME280;41294;42.666;23.350;2022-12-07T05:21:32;94959.00;;;5.36;100.00
55424;BME280;41294;42.666;23.350;2022-12-07T05:23:59;94958.59;;;5.38;100.00
55424;BME280;41294;42.666;23.350;2022-12-07T05:26:24;94948.75;;;5.45;100.00
55424;BME280;41294;42.666;23.350;2022-12-07T05:28:51;94953.03;;;5.36;100.00
55424;BME280;41294;42.666;23.350;2022-12-07T05:31:17;94962.69;;;5.39;100.00
55424;BME280;41294;42.666;23.350;2022-12-07T05:33:43;94953.09;;;5.32;100.00
55424;BME280;41294;42.666;23.350;2022-12-07T05:36:08;94954.69;;;5.46;100.00
55424;BME280;41294;42.666;23.350;2022-12-07T05:38:33;94959.13;;;5.49;100.00
55424;BME280;41294;42.666;23.350;2022-12-07T05:41:04;94950.56;;;5.48;100.00
55424;BME280;41294;42.666;23.350;2022-12-07T05:43:30;94944.56;;;5.32;100.00
55424;BME280;41294;42.666;23.350;2022-12-07T05:45:56;94953.59;;;5.27;100.00
55424;BME280;41294;42.666;23.350;2022-12-07T05:48:22;94948.22;;;5.34;100.00
55424;BME280;41294;42.666;23.350;2022-12-07T05:50:48;94938.13;;;5.36;100.00
55424;BME280;41294;42.666;23.350;2022-12-07T05:53:15;94941.81;;;5.39;100.00
55424;BME280;41294;42.666;23.350;2022-12-07T05:55:40;94942.53;;;5.20;100.00
55424;BME280;41294;42.666;23.350;2022-12-07T05:58:05;94949.38;;;5.33;100.00
55424;BME280;41294;42.666;23.350;2022-12-07T06:00:49;94946.38;;;5.35;100.00
55424;BME280;41294;42.666;23.350;2022-12-07T06:03:15;94954.25;;;5.31;100.00
55424;BME280;41294;42.666;23.350;2022-12-07T06:05:40;94946.22;;;5.42;100.00
55424;BME280;41294;42.666;23.350;2022-12-07T06:08:07;94951.28;;;5.49;100.00
55424;BME280;41294;42.666;23.350;2022-12-07T06:10:32;94946.09;;;5.65;100.00
55424;BME280;41294;42.666;23.350;2022-12-07T06:12:58;94944.25;;;5.65;100.00
55424;BME280;41294;42.666;23.350;2022-12-07T06:15:23;94944.09;;;5.72;100.00
55424;BME280;41294;42.666;23.350;2022-12-07T06:17:48;94948.69;;;5.84;100.00
55424;BME280;41294;42.666;23.350;2022-12-07T06:20:15;94953.13;;;5.87;100.00
55424;BME280;41294;42.666;23.350;2022-12-07T06:22:41;94950.22;;;6.01;100.00
55424;BME280;41294;42.666;23.350;2022-12-07T06:25:07;94951.28;;;6.03;100.00
55424;BME280;41294;42.666;23.350;2022-12-07T06:27:32;94953.56;;;6.17;100.00
55424;BME280;41294;42.666;23.350;2022-12-07T06:29:58;94949.22;;;6.11;100.00
55424;BME280;41294;42.666;23.350;2022-12-07T06:32:24;94952.50;;;6.15;100.00
55424;BME280;41294;42.666;23.350;2022-12-07T06:34:49;94957.22;;;6.20;100.00
55424;BME280;41294;42.666;23.350;2022-12-07T06:37:14;94955.75;;;6.19;100.00
55424;BME280;41294;42.666;23.350;2022-12-07T06:39:40;94959.66;;;6.11;100.00
55424;BME280;41294;42.666;23.350;2022-12-07T06:42:05;94952.81;;;6.17;100.00
55424;BME280;41294;42.666;23.350;2022-12-07T06:44:31;94958.47;;;6.31;100.00
55424;BME280;41294;42.666;23.350;2022-12-07T06:46:56;94969.31;;;6.46;100.00
55424;BME280;41294;42.666;23.350;2022-12-07T06:49:22;94969.16;;;6.53;100.00
55424;BME280;41294;42.666;23.350;2022-12-07T06:51:47;94967.78;;;6.48;100.00
55424;BME280;41294;42.666;23.350;2022-12-07T06:54:14;94960.00;;;6.60;100.00
55424;BME280;41294;42.666;23.350;2022-12-07T06:56:40;94966.19;;;6.66;100.00
55424;BME280;41294;42.666;23.350;2022-12-07T06:59:06;94965.53;;;6.78;100.00
55424;BME280;41294;42.666;23.350;2022-12-07T07:01:33;94970.34;;;6.80;100.00
55424;BME280;41294;42.666;23.350;2022-12-07T07:03:59;94967.44;;;6.90;100.00
55424;BME280;41294;42.666;23.350;2022-12-07T07:06:25;94974.34;;;6.84;100.00
55424;BME280;41294;42.666;23.350;2022-12-07T07:08:50;94970.41;;;6.92;100.00
55424;BME280;41294;42.666;23.350;2022-12-07T07:11:15;94966.25;;;7.07;100.00
55424;BME280;41294;42.666;23.350;2022-12-07T07:13:41;94959.91;;;7.21;100.00
55424;BME280;41294;42.666;23.350;2022-12-07T07:16:07;94969.28;;;7.34;100.00
55424;BME280;41294;42.666;23.350;2022-12-07T07:18:33;94971.19;;;7.46;100.00
55424;BME280;41294;42.666;23.350;2022-12-07T07:20:58;94971.84;;;7.50;100.00
55424;BME280;41294;42.666;23.350;2022-12-07T07:23:24;94968.25;;;7.44;100.00
55424;BME280;41294;42.666;23.350;2022-12-07T07:25:49;94965.63;;;7.32;100.00
55424;BME280;41294;42.666;23.350;2022-12-07T07:28:15;94962.81;;;7.51;100.00
55424;BME280;41294;42.666;23.350;2022-12-07T07:30:41;94966.63;;;7.50;100.00
55424;BME280;41294;42.666;23.350;2022-12-07T07:33:07;94971.69;;;7.82;100.00
55424;BME280;41294;42.666;23.350;2022-12-07T07:35:34;94980.25;;;7.70;100.00
55424;BME280;41294;42.666;23.350;2022-12-07T07:38:00;94984.47;;;7.80;99.98
55424;BME280;41294;42.666;23.350;2022-12-07T07:40:26;94979.75;;;8.00;99.18
55424;BME280;41294;42.666;23.350;2022-12-07T07:42:52;94983.66;;;8.08;99.31
55424;BME280;41294;42.666;23.350;2022-12-07T07:45:19;94979.34;;;8.13;98.87
55424;BME280;41294;42.666;23.350;2022-12-07T07:47:45;94976.09;;;8.10;98.80
55424;BME280;41294;42.666;23.350;2022-12-07T07:50:10;94973.72;;;8.27;98.17
55424;BME280;41294;42.666;23.350;2022-12-07T07:52:36;94975.78;;;8.32;98.81
55424;BME280;41294;42.666;23.350;2022-12-07T07:55:01;94962.44;;;8.64;97.15
55424;BME280;41294;42.666;23.350;2022-12-07T07:57:26;94968.75;;;9.22;94.64
55424;BME280;41294;42.666;23.350;2022-12-07T07:59:52;94966.31;;;9.79;92.60
55424;BME280;41294;42.666;23.350;2022-12-07T08:02:19;94970.41;;;10.01;87.46
55424;BME280;41294;42.666;23.350;2022-12-07T08:04:45;94972.13;;;9.53;90.68
55424;BME280;41294;42.666;23.350;2022-12-07T08:07:11;94965.56;;;9.27;90.70
55424;BME280;41294;42.666;23.350;2022-12-07T08:09:38;94964.84;;;9.26;91.38
55424;BME280;41294;42.666;23.350;2022-12-07T08:12:03;94972.84;;;9.23;90.33
55424;BME280;41294;42.666;23.350;2022-12-07T08:14:31;94962.25;;;9.14;90.67
55424;BME280;41294;42.666;23.350;2022-12-07T08:16:57;94957.59;;;9.18;90.77
55424;BME280;41294;42.666;23.350;2022-12-07T08:19:23;94972.44;;;8.91;91.57
55424;BME280;41294;42.666;23.350;2022-12-07T08:21:48;94970.53;;;8.91;92.26
55424;BME280;41294;42.666;23.350;2022-12-07T08:24:14;94964.91;;;8.80;92.08
55424;BME280;41294;42.666;23.350;2022-12-07T08:26:40;94968.53;;;8.95;91.51
55424;BME280;41294;42.666;23.350;2022-12-07T08:29:06;94964.28;;;8.76;92.35
55424;BME280;41294;42.666;23.350;2022-12-07T08:31:32;94967.34;;;8.75;92.69
55424;BME280;41294;42.666;23.350;2022-12-07T08:33:57;94969.13;;;8.65;93.46
55424;BME280;41294;42.666;23.350;2022-12-07T08:36:23;94965.50;;;8.84;92.97
55424;BME280;41294;42.666;23.350;2022-12-07T08:38:49;94968.72;;;8.67;92.75
55424;BME280;41294;42.666;23.350;2022-12-07T08:41:14;94971.31;;;8.79;93.29
55424;BME280;41294;42.666;23.350;2022-12-07T08:43:40;94964.75;;;8.96;92.35
55424;BME280;41294;42.666;23.350;2022-12-07T08:46:09;94963.84;;;9.11;91.51
55424;BME280;41294;42.666;23.350;2022-12-07T08:48:39;94952.59;;;9.11;91.84
55424;BME280;41294;42.666;23.350;2022-12-07T08:51:05;94952.84;;;9.04;92.14
55424;BME280;41294;42.666;23.350;2022-12-07T08:53:33;94957.38;;;9.25;91.15
55424;BME280;41294;42.666;23.350;2022-12-07T08:55:59;94943.81;;;9.05;91.22
55424;BME280;41294;42.666;23.350;2022-12-07T08:58:25;94942.84;;;8.90;91.74
55424;BME280;41294;42.666;23.350;2022-12-07T09:00:50;94950.53;;;9.06;91.61
55424;BME280;41294;42.666;23.350;2022-12-07T09:03:15;94949.91;;;8.68;92.19
55424;BME280;41294;42.666;23.350;2022-12-07T09:05:41;94938.66;;;8.46;94.43
55424;BME280;41294;42.666;23.350;2022-12-07T09:08:07;94939.94;;;8.42;95.33
55424;BME280;41294;42.666;23.350;2022-12-07T09:10:33;94952.84;;;8.36;94.34
55424;BME280;41294;42.666;23.350;2022-12-07T09:12:58;94945.47;;;8.31;95.58
55424;BME280;41294;42.666;23.350;2022-12-07T09:15:29;94939.75;;;8.24;95.93
55424;BME280;41294;42.666;23.350;2022-12-07T09:17:56;94935.53;;;8.26;95.77
55424;BME280;41294;42.666;23.350;2022-12-07T09:20:21;94937.53;;;8.22;96.75
55424;BME280;41294;42.666;23.350;2022-12-07T09:22:47;94931.31;;;8.29;96.46
55424;BME280;41294;42.666;23.350;2022-12-07T09:25:13;94917.78;;;8.30;96.00
55424;BME280;41294;42.666;23.350;2022-12-07T09:27:38;94921.78;;;8.22;96.86
55424;BME280;41294;42.666;23.350;2022-12-07T09:30:05;94927.66;;;8.39;96.52
55424;BME280;41294;42.666;23.350;2022-12-07T09:32:30;94918.00;;;8.70;94.17
55424;BME280;41294;42.666;23.350;2022-12-07T09:34:56;94918.41;;;8.34;96.05
55424;BME280;41294;42.666;23.350;2022-12-07T09:37:21;94917.81;;;8.18;97.56
55424;BME280;41294;42.666;23.350;2022-12-07T09:39:47;94905.13;;;8.17;97.36
55424;BME280;41294;42.666;23.350;2022-12-07T09:42:34;94903.38;;;8.47;96.32
55424;BME280;41294;42.666;23.350;2022-12-07T09:45:02;94902.38;;;8.66;95.31
55424;BME280;41294;42.666;23.350;2022-12-07T09:47:29;94897.66;;;8.95;94.12
55424;BME280;41294;42.666;23.350;2022-12-07T09:50:12;94893.31;;;8.80;94.42
55424;BME280;41294;42.666;23.350;2022-12-07T09:52:38;94891.91;;;9.09;93.14
55424;BME280;41294;42.666;23.350;2022-12-07T09:55:24;94895.22;;;9.22;91.50
55424;BME280;41294;42.666;23.350;2022-12-07T09:57:51;94897.34;;;8.93;92.34
55424;BME280;41294;42.666;23.350;2022-12-07T10:00:19;94894.25;;;8.52;94.40
55424;BME280;41294;42.666;23.350;2022-12-07T10:02:58;94889.66;;;8.43;96.07
55424;BME280;41294;42.666;23.350;2022-12-07T10:05:35;94878.22;;;8.50;95.63
55424;BME280;41294;42.666;23.350;2022-12-07T10:08:02;94880.78;;;8.62;94.99
55424;BME280;41294;42.666;23.350;2022-12-07T10:10:33;94879.41;;;8.36;96.46
55424;BME280;41294;42.666;23.350;2022-12-07T10:13:01;94869.78;;;8.55;95.92
55424;BME280;41294;42.666;23.350;2022-12-07T10:18:34;94866.50;;;9.27;93.00
55424;BME280;41294;42.666;23.350;2022-12-07T10:23:37;94861.88;;;9.71;89.81
55424;BME280;41294;42.666;23.350;2022-12-07T10:26:32;94864.84;;;9.90;88.97
55424;BME280;41294;42.666;23.350;2022-12-07T10:29:17;94858.09;;;10.29;87.16
55424;BME280;41294;42.666;23.350;2022-12-07T10:31:46;94845.09;;;10.34;86.13
55424;BME280;41294;42.666;23.350;2022-12-07T10:36:50;94838.09;;;9.44;89.15
55424;BME280;41294;42.666;23.350;2022-12-07T10:39:18;94839.97;;;9.74;89.55
55424;BME280;41294;42.666;23.350;2022-12-07T10:42:01;94834.25;;;10.14;86.72
55424;BME280;41294;42.666;23.350;2022-12-07T10:44:30;94834.56;;;10.25;86.42
55424;BME280;41294;42.666;23.350;2022-12-07T10:50:06;94830.69;;;9.51;88.50
55424;BME280;41294;42.666;23.350;2022-12-07T10:58:46;94806.66;;;9.62;89.06
55424;BME280;41294;42.666;23.350;2022-12-07T11:01:33;94805.06;;;9.64;88.25
55424;BME280;41294;42.666;23.350;2022-12-07T11:07:04;94793.00;;;9.84;88.20
55424;BME280;41294;42.666;23.350;2022-12-07T11:09:53;94796.28;;;10.15;86.97
55424;BME280;41294;42.666;23.350;2022-12-07T11:23:07;94787.53;;;10.45;83.09
55424;BME280;41294;42.666;23.350;2022-12-07T11:25:58;94789.44;;;10.18;84.26
55424;BME280;41294;42.666;23.350;2022-12-07T11:29:20;94786.28;;;9.83;86.20
55424;BME280;41294;42.666;23.350;2022-12-07T11:37:11;94752.72;;;10.05;84.72
55424;BME280;41294;42.666;23.350;2022-12-07T11:39:47;94754.06;;;9.53;87.47
55424;BME280;41294;42.666;23.350;2022-12-07T11:42:21;94751.53;;;9.97;86.58
55424;BME280;41294;42.666;23.350;2022-12-07T11:47:34;94757.25;;;10.14;85.51
55424;BME280;41294;42.666;23.350;2022-12-07T11:52:53;94747.31;;;10.45;83.41
55424;BME280;41294;42.666;23.350;2022-12-07T11:55:29;94743.63;;;9.97;83.62
55424;BME280;41294;42.666;23.350;2022-12-07T11:58:11;94745.34;;;9.65;86.41
55424;BME280;41294;42.666;23.350;2022-12-07T12:00:41;94742.06;;;10.00;85.37
55424;BME280;41294;42.666;23.350;2022-12-07T12:03:14;94739.88;;;10.34;84.09
55424;BME280;41294;42.666;23.350;2022-12-07T12:05:42;94736.06;;;10.53;82.91
55424;BME280;41294;42.666;23.350;2022-12-07T12:08:21;94734.88;;;10.54;86.14
55424;BME280;41294;42.666;23.350;2022-12-07T12:11:02;94732.22;;;10.72;83.81
55424;BME280;41294;42.666;23.350;2022-12-07T12:19:34;94726.94;;;10.81;81.28
55424;BME280;41294;42.666;23.350;2022-12-07T12:22:10;94719.44;;;10.79;80.13
55424;BME280;41294;42.666;23.350;2022-12-07T12:24:40;94723.25;;;10.87;80.98
55424;BME280;41294;42.666;23.350;2022-12-07T12:27:09;94711.38;;;11.24;79.88
55424;BME280;41294;42.666;23.350;2022-12-07T12:29:41;94704.13;;;11.43;78.82
55424;BME280;41294;42.666;23.350;2022-12-07T12:32:19;94710.84;;;11.52;78.01
55424;BME280;41294;42.666;23.350;2022-12-07T12:35:28;94695.06;;;11.44;77.44
55424;BME280;41294;42.666;23.350;2022-12-07T12:37:52;94700.91;;;10.74;79.66
55424;BME280;41294;42.666;23.350;2022-12-07T12:42:51;94692.34;;;9.84;84.00
55424;BME280;41294;42.666;23.350;2022-12-07T12:45:20;94684.91;;;9.91;85.73
55424;BME280;41294;42.666;23.350;2022-12-07T12:48:03;94677.13;;;10.60;82.47
55424;BME280;41294;42.666;23.350;2022-12-07T12:53:00;94685.25;;;11.12;80.56
55424;BME280;41294;42.666;23.350;2022-12-07T12:58:34;94699.69;;;10.43;82.43
55424;BME280;41294;42.666;23.350;2022-12-07T13:03:55;94696.81;;;10.73;81.29
55424;BME280;41294;42.666;23.350;2022-12-07T13:08:50;94693.72;;;11.16;78.88
55424;BME280;41294;42.666;23.350;2022-12-07T13:11:38;94686.84;;;11.18;79.47
55424;BME280;41294;42.666;23.350;2022-12-07T13:20:05;94692.34;;;11.29;78.90
55424;BME280;41294;42.666;23.350;2022-12-07T13:25:05;94693.88;;;11.53;78.48
55424;BME280;41294;42.666;23.350;2022-12-07T13:27:33;94695.50;;;11.19;79.39
55424;BME280;41294;42.666;23.350;2022-12-07T13:30:00;94689.72;;;11.29;79.49
55424;BME280;41294;42.666;23.350;2022-12-07T13:32:27;94691.44;;;11.32;79.68
55424;BME280;41294;42.666;23.350;2022-12-07T13:34:53;94688.50;;;11.39;79.46
55424;BME280;41294;42.666;23.350;2022-12-07T13:37:28;94678.38;;;11.38;79.66
55424;BME280;41294;42.666;23.350;2022-12-07T13:39:58;94680.22;;;11.23;80.79
55424;BME280;41294;42.666;23.350;2022-12-07T13:44:54;94674.75;;;11.35;80.36
55424;BME280;41294;42.666;23.350;2022-12-07T13:47:36;94672.13;;;11.03;81.50
55424;BME280;41294;42.666;23.350;2022-12-07T13:50:29;94674.16;;;11.08;81.53
55424;BME280;41294;42.666;23.350;2022-12-07T13:52:56;94681.25;;;11.25;81.22
55424;BME280;41294;42.666;23.350;2022-12-07T13:55:22;94674.91;;;10.99;82.62
55424;BME280;41294;42.666;23.350;2022-12-07T13:57:51;94659.13;;;10.99;82.25
55424;BME280;41294;42.666;23.350;2022-12-07T14:00:19;94657.31;;;10.82;83.33
55424;BME280;41294;42.666;23.350;2022-12-07T14:03:23;94659.06;;;11.08;83.08
55424;BME280;41294;42.666;23.350;2022-12-07T14:06:12;94667.72;;;11.32;81.86
55424;BME280;41294;42.666;23.350;2022-12-07T14:08:39;94671.59;;;11.45;80.71
55424;BME280;41294;42.666;23.350;2022-12-07T14:11:06;94679.13;;;11.38;80.58
55424;BME280;41294;42.666;23.350;2022-12-07T14:13:34;94673.63;;;11.27;80.89
55424;BME280;41294;42.666;23.350;2022-12-07T14:16:01;94673.63;;;11.27;81.76
55424;BME280;41294;42.666;23.350;2022-12-07T14:18:38;94675.91;;;11.34;81.42
55424;BME280;41294;42.666;23.350;2022-12-07T14:23:37;94680.94;;;11.00;82.60
55424;BME280;41294;42.666;23.350;2022-12-07T14:26:19;94687.63;;;11.10;82.54
55424;BME280;41294;42.666;23.350;2022-12-07T14:28:45;94682.66;;;11.03;82.77
55424;BME280;41294;42.666;23.350;2022-12-07T14:31:18;94690.75;;;10.90;83.65
55424;BME280;41294;42.666;23.350;2022-12-07T14:33:46;94682.84;;;10.90;83.80
55424;BME280;41294;42.666;23.350;2022-12-07T14:36:12;94683.63;;;10.82;84.22
55424;BME280;41294;42.666;23.350;2022-12-07T14:38:38;94684.03;;;10.89;83.58
55424;BME280;41294;42.666;23.350;2022-12-07T14:41:06;94679.81;;;10.83;84.14
55424;BME280;41294;42.666;23.350;2022-12-07T14:43:54;94681.72;;;10.82;83.83
55424;BME280;41294;42.666;23.350;2022-12-07T14:46:19;94678.72;;;10.66;85.10
55424;BME280;41294;42.666;23.350;2022-12-07T14:48:45;94679.63;;;10.45;86.24
55424;BME280;41294;42.666;23.350;2022-12-07T14:51:12;94680.50;;;10.42;86.89
55424;BME280;41294;42.666;23.350;2022-12-07T14:53:43;94678.78;;;10.39;86.67
55424;BME280;41294;42.666;23.350;2022-12-07T14:56:09;94681.72;;;10.23;88.12
55424;BME280;41294;42.666;23.350;2022-12-07T14:58:35;94677.66;;;10.13;89.23
55424;BME280;41294;42.666;23.350;2022-12-07T15:01:00;94680.28;;;10.04;88.76
55424;BME280;41294;42.666;23.350;2022-12-07T15:03:26;94683.50;;;9.99;89.79